createdAt,value
2023-01-07T00:02:08.995Z,21.58
2023-01-07T00:04:38.227Z,20.75
2023-01-07T00:07:06.068Z,21.63
2023-01-07T00:09:33.925Z,22.58
2023-01-07T00:12:01.815Z,22.02
2023-01-07T00:14:29.637Z,22.33
2023-01-07T00:16:57.535Z,21.38
2023-01-07T00:19:25.400Z,24.23
2023-01-07T00:21:54.918Z,23.17
2023-01-07T00:24:22.740Z,25.38
2023-01-07T00:26:50.752Z,22.63
2023-01-07T00:29:19.266Z,23.60
2023-01-07T00:31:47.261Z,23.60
2023-01-07T00:34:15.991Z,23.95
2023-01-07T00:36:45.434Z,23.67
2023-01-07T00:39:16.903Z,23.45
2023-01-07T00:42:06.533Z,24.48
2023-01-07T00:44:35.258Z,23.17
2023-01-07T00:47:03.688Z,22.90
2023-01-07T00:49:31.665Z,23.48
2023-01-07T00:51:59.530Z,22.90
2023-01-07T00:54:28.751Z,23.95
2023-01-07T00:56:57.068Z,23.13
2023-01-07T00:59:25.111Z,22.98
2023-01-07T01:01:53.152Z,22.98
2023-01-07T01:04:21.160Z,23.65
2023-01-07T01:06:49.083Z,23.30
2023-01-07T01:09:18.282Z,21.92
2023-01-07T01:11:48.336Z,21.38
2023-01-07T01:14:16.270Z,20.42
2023-01-07T01:16:46.686Z,20.70
2023-01-07T01:19:14.632Z,21.98
2023-01-07T01:21:42.555Z,20.35
2023-01-07T01:24:11.061Z,20.85
2023-01-07T01:26:40.264Z,20.35
2023-01-07T01:29:09.550Z,20.35
2023-01-07T01:31:37.579Z,19.58
2023-01-07T01:34:06.428Z,20.02
2023-01-07T01:36:35.403Z,20.05
2023-01-07T01:39:04.924Z,19.92
2023-01-07T01:41:34.425Z,20.23
2023-01-07T01:44:03.164Z,20.25
2023-01-07T01:46:37.742Z,19.55
2023-01-07T01:49:16.219Z,18.65
2023-01-07T01:51:52.937Z,19.27
2023-01-07T01:54:22.076Z,17.83
2023-01-07T01:56:56.139Z,18.33
2023-01-07T01:59:28.238Z,18.90
2023-01-07T02:01:59.411Z,18.77
2023-01-07T02:04:28.765Z,18.27
2023-01-07T02:07:01.390Z,18.85
2023-01-07T02:09:31.011Z,19.55
2023-01-07T02:12:09.973Z,18.65
2023-01-07T02:14:51.702Z,20.40
2023-01-07T02:17:37.527Z,20.60
2023-01-07T02:20:26.847Z,19.88
2023-01-07T02:23:23.289Z,19.17
2023-01-07T02:26:29.722Z,20.42
2023-01-07T02:29:21.464Z,20.23
2023-01-07T02:32:07.230Z,20.45
2023-01-07T02:34:43.797Z,20.38
2023-01-07T02:37:16.955Z,20.55
2023-01-07T02:39:58.154Z,21.17
2023-01-07T02:42:32.732Z,21.20
2023-01-07T02:45:07.198Z,20.88
2023-01-07T02:47:39.400Z,21.63
2023-01-07T02:50:09.250Z,23.08
2023-01-07T02:52:38.071Z,21.17
2023-01-07T02:55:11.991Z,21.63
2023-01-07T02:58:09.966Z,20.75
2023-01-07T03:00:59.549Z,21.80
2023-01-07T03:03:46.412Z,21.77
2023-01-07T03:06:30.642Z,21.73
2023-01-07T03:09:09.928Z,21.35
2023-01-07T03:11:46.156Z,21.02
2023-01-07T03:14:20.767Z,21.27
2023-01-07T03:16:55.692Z,21.00
2023-01-07T03:21:57.048Z,19.95
2023-01-07T03:24:27.824Z,20.42
2023-01-07T03:26:59.560Z,20.65
2023-01-07T03:29:28.041Z,21.02
2023-01-07T03:32:02.841Z,21.83
2023-01-07T03:34:34.732Z,21.27
2023-01-07T03:37:05.738Z,21.55
2023-01-07T03:39:37.317Z,21.00
2023-01-07T03:42:25.736Z,20.85
2023-01-07T03:44:54.299Z,20.63
2023-01-07T03:47:24.932Z,20.15
2023-01-07T03:49:54.206Z,19.75
2023-01-07T03:52:22.377Z,18.90
2023-01-07T03:54:50.427Z,19.17
2023-01-07T03:57:18.844Z,20.88
2023-01-07T03:59:46.946Z,19.58
2023-01-07T04:02:15.343Z,18.38
2023-01-07T04:04:43.447Z,20.13
2023-01-07T04:07:13.789Z,19.05
2023-01-07T04:09:41.835Z,19.85
2023-01-07T04:12:10.516Z,18.52
2023-01-07T04:14:38.582Z,17.83
2023-01-07T04:17:06.502Z,18.05
2023-01-07T04:19:34.975Z,18.33
2023-01-07T04:22:02.973Z,17.23
2023-01-07T04:24:34.295Z,18.60
2023-01-07T04:27:02.375Z,17.52
2023-01-07T04:29:30.606Z,17.67
2023-01-07T04:31:58.982Z,16.75
2023-01-07T04:34:26.993Z,16.75
2023-01-07T04:36:54.951Z,16.05
2023-01-07T04:39:24.383Z,15.43
2023-01-07T04:41:53.724Z,17.58
2023-01-07T04:44:21.842Z,17.30
2023-01-07T04:46:49.669Z,16.30
2023-01-07T04:49:20.292Z,16.70
2023-01-07T04:51:48.638Z,17.08
2023-01-07T04:54:17.023Z,16.73
2023-01-07T04:56:44.963Z,17.17
2023-01-07T04:59:15.149Z,16.05
2023-01-07T05:01:43.684Z,16.98
2023-01-07T05:04:12.043Z,17.25
2023-01-07T05:06:40.034Z,17.90
2023-01-07T05:09:09.075Z,17.08
2023-01-07T05:11:37.124Z,17.00
2023-01-07T05:14:05.782Z,15.13
2023-01-07T05:16:36.136Z,16.15
2023-01-07T05:19:07.753Z,15.25
2023-01-07T05:21:40.024Z,16.25
2023-01-07T05:24:09.037Z,16.48
2023-01-07T05:26:37.746Z,15.13
2023-01-07T05:29:05.973Z,16.90
2023-01-07T05:31:35.747Z,14.80
2023-01-07T05:34:04.075Z,15.88
2023-01-07T05:36:32.044Z,15.32
2023-01-07T05:38:59.986Z,15.40
2023-01-07T05:41:28.161Z,15.35
2023-01-07T05:43:56.934Z,14.65
2023-01-07T05:46:25.240Z,14.30
2023-01-07T05:48:54.773Z,14.07
2023-01-07T05:51:22.732Z,14.10
2023-01-07T05:53:50.573Z,13.98
2023-01-07T05:56:18.462Z,13.63
2023-01-07T05:58:46.364Z,13.63
2023-01-07T06:01:14.427Z,13.25
2023-01-07T06:03:42.641Z,12.98
2023-01-07T06:06:12.047Z,12.55
2023-01-07T06:08:40.419Z,13.35
2023-01-07T06:11:09.446Z,12.52
2023-01-07T06:13:37.697Z,12.75
2023-01-07T06:16:08.069Z,12.00
2023-01-07T06:18:36.506Z,11.30
2023-01-07T06:21:05.035Z,11.98
2023-01-07T06:23:34.430Z,11.10
2023-01-07T06:26:02.948Z,10.60
2023-01-07T06:28:30.896Z,11.00
2023-01-07T06:30:59.015Z,10.98
2023-01-07T06:33:27.082Z,11.90
2023-01-07T06:35:54.945Z,11.82
2023-01-07T06:38:22.931Z,10.00
2023-01-07T06:40:52.243Z,11.18
2023-01-07T06:43:20.410Z,10.32
2023-01-07T06:45:48.715Z,11.88
2023-01-07T06:48:17.030Z,10.50
2023-01-07T06:50:46.145Z,10.48
2023-01-07T06:53:14.329Z,10.15
2023-01-07T06:55:42.176Z,10.65
2023-01-07T06:58:11.599Z,11.07
2023-01-07T07:00:39.865Z,9.88
2023-01-07T07:03:07.918Z,10.30
2023-01-07T07:05:36.279Z,10.48
2023-01-07T07:08:06.495Z,10.13
2023-01-07T07:10:35.648Z,10.30
2023-01-07T07:13:04.048Z,10.05
2023-01-07T07:15:33.837Z,9.88
2023-01-07T07:18:01.722Z,9.45
2023-01-07T07:20:29.902Z,9.27
2023-01-07T07:22:57.946Z,9.70
2023-01-07T07:25:25.956Z,9.02
2023-01-07T07:27:53.921Z,9.68
2023-01-07T07:30:22.084Z,9.75
2023-01-07T07:33:12.604Z,9.35
2023-01-07T07:35:40.528Z,9.18
2023-01-07T07:38:08.629Z,9.48
2023-01-07T07:40:37.466Z,9.27
2023-01-07T07:43:10.492Z,9.50
2023-01-07T07:45:40.855Z,9.00
2023-01-07T07:48:11.232Z,8.98
2023-01-07T07:50:39.475Z,8.40
2023-01-07T07:53:10.256Z,7.90
2023-01-07T07:55:39.313Z,8.73
2023-01-07T07:58:07.597Z,8.95
2023-01-07T08:00:35.695Z,8.95
2023-01-07T08:03:04.346Z,7.50
2023-01-07T08:05:34.395Z,7.30
2023-01-07T08:08:02.573Z,8.10
2023-01-07T08:10:31.088Z,7.22
2023-01-07T08:13:00.100Z,7.70
2023-01-07T08:15:28.665Z,7.47
2023-01-07T08:18:00.918Z,6.32
2023-01-07T08:20:29.760Z,6.00
2023-01-07T08:23:01.459Z,6.38
2023-01-07T08:25:30.221Z,6.88
2023-01-07T08:27:59.389Z,6.78
2023-01-07T08:30:28.430Z,6.05
2023-01-07T08:32:57.245Z,6.00
2023-01-07T08:35:25.367Z,6.00
2023-01-07T08:37:54.183Z,5.82
2023-01-07T08:40:24.049Z,5.45
2023-01-07T08:42:52.581Z,5.97
2023-01-07T08:45:21.039Z,5.20
2023-01-07T08:47:49.478Z,5.90
2023-01-07T08:50:18.026Z,5.63
2023-01-07T08:52:47.231Z,5.68
2023-01-07T08:55:15.878Z,5.65
2023-01-07T08:57:45.581Z,5.35
2023-01-07T09:00:15.888Z,5.30
2023-01-07T09:02:45.012Z,4.63
2023-01-07T09:05:13.645Z,4.80
2023-01-07T09:07:42.142Z,5.25
2023-01-07T09:10:12.269Z,5.25
2023-01-07T09:12:40.453Z,5.57
2023-01-07T09:15:11.851Z,5.35
2023-01-07T09:17:40.107Z,5.10
2023-01-07T09:20:09.270Z,5.30
2023-01-07T09:22:38.454Z,4.90
2023-01-07T09:25:07.820Z,5.00
2023-01-07T09:27:37.425Z,4.70
2023-01-07T09:30:08.089Z,5.22
2023-01-07T09:32:37.651Z,4.32
2023-01-07T09:35:07.295Z,5.20
2023-01-07T09:37:35.399Z,4.40
2023-01-07T09:40:03.872Z,4.88
2023-01-07T09:42:42.579Z,4.40
2023-01-07T09:45:18.111Z,4.88
2023-01-07T09:47:50.703Z,5.00
2023-01-07T09:50:29.074Z,4.07
2023-01-07T09:53:01.717Z,4.72
2023-01-07T09:55:34.958Z,4.20
2023-01-07T09:58:03.418Z,4.88
2023-01-07T10:00:35.111Z,4.30
2023-01-07T10:03:17.414Z,4.13
2023-01-07T10:05:57.370Z,4.03
2023-01-07T10:08:39.639Z,5.15
2023-01-07T10:11:23.440Z,4.05
2023-01-07T10:14:07.763Z,3.80
2023-01-07T10:16:43.972Z,3.50
2023-01-07T10:19:24.461Z,3.67
2023-01-07T10:21:57.703Z,3.00
2023-01-07T10:24:28.489Z,3.60
2023-01-07T10:27:01.618Z,3.20
2023-01-07T10:29:35.579Z,3.28
2023-01-07T10:32:14.085Z,3.53
2023-01-07T10:34:47.830Z,2.70
2023-01-07T10:37:26.900Z,3.50
2023-01-07T10:40:07.946Z,3.00
2023-01-07T10:42:40.691Z,3.20
2023-01-07T10:45:29.417Z,3.17
2023-01-07T10:48:18.465Z,2.78
2023-01-07T10:51:02.656Z,2.70
2023-01-07T10:53:45.108Z,3.05
2023-01-07T10:56:25.131Z,2.65
2023-01-07T10:58:53.825Z,2.42
2023-01-07T11:01:26.945Z,2.72
2023-01-07T11:03:57.410Z,2.33
2023-01-07T11:06:37.961Z,2.90
2023-01-07T11:09:10.840Z,2.75
2023-01-07T11:11:40.701Z,2.30
2023-01-07T11:14:13.780Z,2.63
2023-01-07T11:16:48.670Z,2.97
2023-01-07T11:19:17.542Z,2.75
2023-01-07T11:21:48.939Z,2.70
2023-01-07T11:24:31.714Z,2.55
2023-01-07T11:27:03.553Z,2.38
2023-01-07T11:29:38.383Z,2.85
2023-01-07T11:32:08.174Z,2.67
2023-01-07T11:34:39.152Z,2.33
2023-01-07T11:37:13.216Z,2.40
2023-01-07T11:39:41.628Z,2.00
2023-01-07T11:42:35.915Z,1.90
2023-01-07T11:45:11.099Z,2.10
2023-01-07T11:47:46.261Z,1.90
2023-01-07T11:50:24.027Z,2.17
2023-01-07T11:53:03.355Z,2.22
2023-01-07T11:55:32.079Z,2.38
2023-01-07T11:58:28.397Z,1.92
2023-01-07T12:01:04.872Z,1.90
2023-01-07T12:03:33.256Z,2.05
2023-01-07T12:06:08.119Z,2.60
2023-01-07T12:08:38.394Z,1.80
2023-01-07T12:11:09.506Z,1.90
2023-01-07T12:13:42.037Z,1.73
2023-01-07T12:16:11.715Z,2.15
2023-01-07T12:18:57.824Z,2.05
2023-01-07T12:21:36.323Z,1.60
2023-01-07T12:24:36.196Z,2.00
2023-01-07T12:27:15.823Z,1.98
2023-01-07T12:29:59.219Z,2.10
2023-01-07T12:32:41.599Z,1.88
2023-01-07T12:35:15.901Z,1.80
2023-01-07T12:37:51.608Z,1.60
2023-01-07T12:40:35.133Z,2.15
2023-01-07T12:43:13.370Z,1.90
2023-01-07T12:45:48.951Z,1.55
2023-01-07T12:48:24.584Z,1.77
2023-01-07T12:50:56.916Z,1.95
2023-01-07T12:53:35.486Z,2.05
2023-01-07T12:56:12.968Z,1.75
2023-01-07T12:58:48.837Z,1.65
2023-01-07T13:01:27.240Z,2.00
2023-01-07T13:04:10.542Z,1.70
2023-01-07T13:06:45.466Z,1.45
2023-01-07T13:09:23.051Z,1.63
2023-01-07T13:12:40.898Z,1.60
2023-01-07T13:15:06.038Z,1.88
2023-01-07T13:17:34.580Z,1.25
2023-01-07T13:20:04.832Z,1.50
2023-01-07T13:22:39.643Z,1.42
2023-01-07T13:25:25.967Z,2.92
2023-01-07T13:28:24.818Z,1.60
2023-01-07T13:31:11.012Z,1.50
2023-01-07T13:33:46.664Z,1.33
2023-01-07T13:36:24.962Z,1.40
2023-01-07T13:39:31.525Z,1.50
2023-01-07T13:42:14.444Z,1.67
2023-01-07T13:44:57.362Z,1.63
2023-01-07T13:47:32.309Z,1.70
2023-01-07T13:50:04.137Z,1.80
2023-01-07T13:52:34.841Z,1.67
2023-01-07T13:55:05.348Z,1.33
2023-01-07T13:57:44.520Z,1.50
2023-01-07T14:00:41.478Z,1.63
2023-01-07T14:03:40.281Z,1.70
2023-01-07T14:06:42.381Z,1.40
2023-01-07T14:09:32.783Z,1.50
2023-01-07T14:12:31.693Z,1.70
2023-01-07T14:15:26.551Z,2.05
2023-01-07T14:18:07.644Z,1.58
2023-01-07T14:20:47.594Z,2.00
2023-01-07T14:23:29.067Z,1.50
2023-01-07T14:26:09.653Z,1.67
2023-01-07T14:29:17.138Z,1.83
2023-01-07T14:31:45.919Z,2.15
2023-01-07T14:34:22.273Z,1.80
2023-01-07T14:37:15.538Z,1.85
2023-01-07T14:39:45.513Z,1.90
2023-01-07T14:42:42.077Z,1.80
2023-01-07T14:45:46.945Z,2.28
2023-01-07T14:48:29.805Z,1.75
2023-01-07T14:51:17.142Z,2.00
2023-01-07T14:54:08.404Z,2.20
2023-01-07T14:56:52.553Z,2.20
2023-01-07T14:59:36.102Z,2.20
2023-01-07T15:02:37.904Z,2.00
2023-01-07T15:05:23.337Z,2.63
2023-01-07T15:08:18.501Z,2.00
2023-01-07T15:11:08.738Z,2.45
2023-01-07T15:14:01.057Z,2.60
2023-01-07T15:16:31.547Z,2.60
2023-01-07T15:19:00.275Z,2.30
2023-01-07T15:21:37.364Z,1.88
2023-01-07T15:24:15.914Z,2.50
2023-01-07T15:26:51.257Z,2.22
2023-01-07T15:29:27.923Z,2.28
2023-01-07T15:32:04.889Z,2.80
2023-01-07T15:34:34.635Z,1.85
2023-01-07T15:37:06.494Z,2.47
2023-01-07T15:39:40.568Z,2.47
2023-01-07T15:42:16.300Z,2.38
2023-01-07T15:44:45.058Z,1.85
2023-01-07T15:47:32.667Z,2.22
2023-01-07T15:50:22.188Z,2.10
2023-01-07T15:52:51.976Z,2.20
2023-01-07T15:55:27.418Z,2.40
2023-01-07T15:58:01.221Z,2.65
2023-01-07T16:00:30.144Z,2.20
2023-01-07T16:02:59.398Z,2.60
2023-01-07T16:05:28.637Z,2.85
2023-01-07T16:07:58.970Z,2.13
2023-01-07T16:10:32.290Z,2.60
2023-01-07T16:13:03.096Z,2.50
2023-01-07T16:15:33.840Z,2.60
2023-01-07T16:18:03.995Z,2.40
2023-01-07T16:20:34.574Z,2.63
2023-01-07T16:23:21.748Z,2.92
2023-01-07T16:25:56.432Z,2.25
2023-01-07T16:28:29.218Z,2.75
2023-01-07T16:30:58.929Z,2.90
2023-01-07T16:33:29.924Z,3.05
2023-01-07T16:36:01.447Z,2.83
2023-01-07T16:38:30.184Z,2.60
2023-01-07T16:41:00.119Z,2.60
2023-01-07T16:43:44.462Z,3.75
2023-01-07T16:46:23.654Z,2.53
2023-01-07T16:49:19.715Z,4.95
2023-01-07T16:51:50.652Z,6.82
2023-01-07T16:54:35.226Z,5.47
2023-01-07T16:57:07.039Z,3.10
2023-01-07T16:59:38.576Z,2.95
2023-01-07T17:02:27.201Z,2.78
2023-01-07T17:04:56.091Z,2.70
2023-01-07T17:07:27.381Z,2.72
2023-01-07T17:09:58.651Z,3.30
2023-01-07T17:12:37.168Z,2.97
2023-01-07T17:15:34.300Z,2.88
2023-01-07T17:18:28.740Z,2.78
2023-01-07T17:21:00.215Z,3.28
2023-01-07T17:23:47.046Z,2.60
2023-01-07T17:26:22.186Z,3.42
2023-01-07T17:28:54.367Z,3.30
2023-01-07T17:31:23.518Z,3.10
2023-01-07T17:33:52.185Z,3.20
2023-01-07T17:36:22.667Z,2.78
2023-01-07T17:38:50.998Z,3.20
2023-01-07T17:41:39.460Z,3.42
2023-01-07T17:44:12.974Z,3.65
2023-01-07T17:49:11.010Z,3.55
2023-01-07T17:51:41.933Z,3.28
2023-01-07T17:54:20.033Z,3.28
2023-01-07T17:56:48.563Z,3.47
2023-01-07T17:59:19.729Z,3.20
2023-01-07T18:01:48.212Z,3.65
2023-01-07T18:04:17.637Z,3.50
2023-01-07T18:06:48.654Z,3.20
2023-01-07T18:09:16.715Z,3.70
2023-01-07T18:12:04.192Z,3.38
2023-01-07T18:14:34.038Z,4.22
2023-01-07T18:17:02.936Z,3.65
2023-01-07T18:19:31.292Z,3.65
2023-01-07T18:21:59.397Z,3.40
2023-01-07T18:24:27.449Z,3.42
2023-01-07T18:26:56.649Z,4.50
2023-01-07T18:29:25.629Z,4.10
2023-01-07T18:31:55.227Z,4.30
2023-01-07T18:34:23.639Z,4.60
2023-01-07T18:36:54.124Z,3.70
2023-01-07T18:39:22.122Z,4.30
2023-01-07T18:41:51.047Z,3.53
2023-01-07T18:44:20.167Z,4.25
2023-01-07T18:46:48.723Z,3.97
2023-01-07T18:49:18.267Z,4.07
2023-01-07T18:51:47.850Z,4.22
2023-01-07T18:54:16.666Z,3.65
2023-01-07T18:56:45.863Z,4.50
2023-01-07T18:59:14.511Z,3.80
2023-01-07T19:01:43.104Z,4.25
2023-01-07T19:04:22.621Z,4.32
2023-01-07T19:06:52.287Z,3.65
2023-01-07T19:09:21.071Z,3.88
2023-01-07T19:11:49.648Z,4.10
2023-01-07T19:14:17.958Z,3.53
2023-01-07T19:16:46.509Z,3.40
2023-01-07T19:19:15.172Z,3.53
2023-01-07T19:21:43.662Z,3.70
2023-01-07T19:24:13.509Z,3.20
2023-01-07T19:26:42.997Z,3.83
2023-01-07T19:29:13.922Z,3.67
2023-01-07T19:31:43.164Z,3.63
2023-01-07T19:34:12.229Z,3.75
2023-01-07T19:36:45.266Z,3.83
2023-01-07T19:39:17.262Z,4.22
2023-01-07T19:41:49.426Z,3.90
2023-01-07T19:44:20.021Z,3.65
2023-01-07T19:46:49.715Z,3.95
2023-01-07T19:49:19.500Z,3.80
2023-01-07T19:51:50.044Z,3.88
2023-01-07T19:54:22.496Z,3.67
2023-01-07T19:56:51.960Z,3.35
2023-01-07T19:59:20.690Z,3.22
2023-01-07T20:01:51.076Z,3.47
2023-01-07T20:04:20.326Z,3.63
2023-01-07T20:06:51.680Z,3.55
2023-01-07T20:09:23.318Z,3.25
2023-01-07T20:11:52.165Z,3.05
2023-01-07T20:14:20.190Z,3.53
2023-01-07T20:16:48.491Z,3.15
2023-01-07T20:19:17.131Z,3.00
2023-01-07T20:21:45.171Z,3.53
2023-01-07T20:24:13.798Z,3.40
2023-01-07T20:26:43.232Z,3.20
2023-01-07T20:29:11.306Z,3.75
2023-01-07T20:31:40.156Z,3.63
2023-01-07T20:34:08.703Z,3.08
2023-01-07T20:36:37.323Z,3.70
2023-01-07T20:39:06.407Z,3.00
2023-01-07T20:41:37.963Z,3.58
2023-01-07T20:44:10.013Z,3.00
2023-01-07T20:46:39.435Z,3.50
2023-01-07T20:49:08.433Z,3.30
2023-01-07T20:51:37.833Z,3.45
2023-01-07T20:54:06.658Z,3.25
2023-01-07T20:56:35.377Z,3.30
2023-01-07T20:59:04.051Z,3.20
2023-01-07T21:01:34.290Z,2.78
2023-01-07T21:04:03.390Z,3.33
2023-01-07T21:06:31.634Z,3.45
2023-01-07T21:09:00.316Z,3.05
2023-01-07T21:11:28.521Z,3.55
2023-01-07T21:13:58.018Z,3.50
2023-01-07T21:16:29.581Z,3.70
2023-01-07T21:19:00.916Z,3.17
2023-01-07T21:21:29.130Z,3.28
2023-01-07T21:23:58.889Z,3.60
2023-01-07T21:26:27.288Z,3.42
2023-01-07T21:28:56.506Z,3.50
2023-01-07T21:31:25.384Z,3.40
2023-01-07T21:33:56.866Z,3.60
2023-01-07T21:36:28.685Z,3.35
2023-01-07T21:38:59.297Z,3.95
2023-01-07T21:41:33.870Z,3.42
2023-01-07T21:44:03.257Z,3.55
2023-01-07T21:46:33.244Z,3.38
2023-01-07T21:49:04.425Z,3.40
2023-01-07T21:51:34.039Z,3.88
2023-01-07T21:54:02.101Z,3.13
2023-01-07T21:56:32.946Z,3.47
2023-01-07T21:59:01.606Z,3.38
2023-01-07T22:01:31.547Z,3.35
2023-01-07T22:04:00.308Z,3.63
2023-01-07T22:06:30.979Z,4.03
2023-01-07T22:09:02.415Z,3.50
2023-01-07T22:11:30.443Z,4.03
2023-01-07T22:14:00.720Z,4.15
2023-01-07T22:16:33.308Z,3.67
2023-01-07T22:19:02.240Z,3.90
2023-01-07T22:21:30.631Z,4.40
2023-01-07T22:24:00.018Z,3.65
2023-01-07T22:26:28.553Z,4.03
2023-01-07T22:29:01.840Z,4.22
2023-01-07T22:31:32.826Z,4.00
2023-01-07T22:34:01.010Z,3.70
2023-01-07T22:36:36.969Z,3.35
2023-01-07T22:39:11.465Z,3.38
2023-01-07T22:41:39.917Z,3.70
2023-01-07T22:44:14.703Z,3.58
2023-01-07T22:46:45.772Z,3.40
2023-01-07T22:49:13.765Z,3.78
2023-01-07T22:51:45.073Z,3.70
2023-01-07T22:54:15.713Z,3.83
2023-01-07T22:56:44.940Z,3.50
2023-01-07T22:59:13.343Z,3.75
2023-01-07T23:01:41.197Z,3.50
2023-01-07T23:04:09.378Z,3.85
2023-01-07T23:06:37.485Z,3.22
2023-01-07T23:09:05.963Z,3.38
2023-01-07T23:11:50.743Z,3.38
2023-01-07T23:14:20.929Z,3.25
2023-01-07T23:16:49.856Z,3.33
2023-01-07T23:19:18.437Z,3.13
2023-01-07T23:21:47.823Z,3.17
2023-01-07T23:24:16.121Z,3.78
2023-01-07T23:26:46.962Z,3.20
2023-01-07T23:29:14.981Z,3.70
2023-01-07T23:31:43.085Z,3.42
2023-01-07T23:34:11.641Z,3.53
2023-01-07T23:36:40.020Z,3.05
2023-01-07T23:39:08.156Z,3.20
2023-01-07T23:41:36.188Z,3.05
2023-01-07T23:44:06.105Z,3.17
2023-01-07T23:46:34.493Z,3.03
2023-01-07T23:49:02.465Z,3.42
2023-01-07T23:51:30.589Z,3.45
2023-01-07T23:53:58.559Z,3.65
2023-01-07T23:56:26.701Z,2.90
2023-01-07T23:58:54.683Z,2.95
